createdAt,value
2018-11-25T00:00:05.489Z,6.87
2018-11-25T00:01:05.476Z,6.74
2018-11-25T00:02:05.469Z,6.72
2018-11-25T00:03:05.466Z,6.79
2018-11-25T00:04:05.468Z,6.74
2018-11-25T00:05:05.188Z,6.75
2018-11-25T00:06:05.426Z,6.75
2018-11-25T00:07:05.438Z,6.72
2018-11-25T00:08:05.418Z,6.72
2018-11-25T00:09:05.409Z,6.77
2018-11-25T00:10:05.165Z,6.74
2018-11-25T00:11:05.410Z,6.74
2018-11-25T00:12:05.420Z,6.72
2018-11-25T00:13:05.126Z,6.67
2018-11-25T00:14:05.399Z,6.72
2018-11-25T00:15:05.143Z,6.66
2018-11-25T00:16:05.374Z,6.63
2018-11-25T00:17:05.357Z,6.6
2018-11-25T00:18:05.102Z,6.52
2018-11-25T00:19:05.343Z,6.56
2018-11-25T00:20:05.073Z,6.39
2018-11-25T00:21:05.068Z,6.38
2018-11-25T00:22:05.073Z,6.44
2018-11-25T00:23:05.055Z,6.42
2018-11-25T00:24:05.297Z,6.33
2018-11-25T00:25:05.305Z,6.36
2018-11-25T00:26:05.029Z,6.28
2018-11-25T00:27:05.273Z,6.39
2018-11-25T00:28:05.287Z,6.39
2018-11-25T00:29:05.269Z,6.45
2018-11-25T00:30:05.265Z,6.41
2018-11-25T00:31:11.966Z,6.41
2018-11-25T00:32:05.259Z,6.45
2018-11-25T00:33:04.991Z,6.45
2018-11-25T00:34:05.231Z,6.39
2018-11-25T00:35:05.233Z,6.42
2018-11-25T00:36:05.199Z,6.33
2018-11-25T00:37:04.956Z,6.33
2018-11-25T00:38:05.206Z,6.36
2018-11-25T00:39:05.197Z,6.26
2018-11-25T00:40:05.186Z,6.26
2018-11-25T00:41:05.150Z,6.3
2018-11-25T00:42:05.149Z,6.17
2018-11-25T00:43:05.146Z,6.16
2018-11-25T00:44:05.134Z,6.11
2018-11-25T00:45:04.881Z,6.05
2018-11-25T00:46:04.618Z,6.01
2018-11-25T00:47:04.864Z,6.09
2018-11-25T00:48:05.113Z,6.01
2018-11-25T00:49:05.097Z,5.99
2018-11-25T00:50:05.087Z,6.02
2018-11-25T00:51:05.084Z,5.94
2018-11-25T00:52:04.812Z,5.86
2018-11-25T00:53:05.057Z,5.94
2018-11-25T00:54:04.807Z,5.89
2018-11-25T00:55:05.026Z,5.86
2018-11-25T00:56:05.026Z,5.82
2018-11-25T00:57:05.023Z,5.82
2018-11-25T00:58:05.013Z,5.69
2018-11-25T00:59:05.024Z,5.71
2018-11-25T01:00:04.759Z,5.71
2018-11-25T01:01:04.988Z,5.65
2018-11-25T01:02:04.982Z,5.73
2018-11-25T01:03:04.724Z,5.64
2018-11-25T01:04:06.035Z,5.61
2018-11-25T01:05:04.976Z,5.62
2018-11-25T01:06:04.944Z,5.56
2018-11-25T01:07:04.946Z,5.56
2018-11-25T01:08:04.927Z,5.57
2018-11-25T01:09:04.920Z,5.59
2018-11-25T01:10:04.665Z,5.57
2018-11-25T01:11:04.898Z,5.54
2018-11-25T01:12:04.658Z,5.57
2018-11-25T01:13:04.894Z,5.59
2018-11-25T01:14:04.891Z,5.51
2018-11-25T01:15:04.907Z,5.53
2018-11-25T01:16:04.863Z,5.51
2018-11-25T01:17:04.633Z,5.46
2018-11-25T01:18:04.848Z,5.61
2018-11-25T01:19:04.585Z,5.48
2018-11-25T01:20:04.842Z,5.47
2018-11-25T01:21:04.847Z,5.44
2018-11-25T01:22:04.828Z,5.39
2018-11-25T01:23:04.556Z,5.36
2018-11-25T01:24:04.827Z,5.36
2018-11-25T01:25:04.569Z,5.41
2018-11-25T01:26:04.561Z,5.38
2018-11-25T01:27:04.777Z,5.39
2018-11-25T01:28:04.761Z,5.44
2018-11-25T01:29:04.778Z,5.32
2018-11-25T01:30:04.775Z,5.36
2018-11-25T01:31:04.731Z,5.3
2018-11-25T01:32:04.477Z,5.29
2018-11-25T01:33:04.728Z,5.32
2018-11-25T01:34:04.725Z,5.32
2018-11-25T01:35:05.978Z,5.28
2018-11-25T01:36:04.465Z,5.28
2018-11-25T01:37:04.694Z,5.28
2018-11-25T01:38:04.673Z,5.3
2018-11-25T01:39:04.656Z,5.3
2018-11-25T01:40:04.663Z,5.29
2018-11-25T01:41:04.647Z,5.28
2018-11-25T01:42:04.392Z,5.26
2018-11-25T01:43:04.374Z,5.25
2018-11-25T01:44:04.618Z,5.23
2018-11-25T01:45:04.615Z,5.17
2018-11-25T01:46:04.592Z,5.15
2018-11-25T01:47:04.591Z,5.14
2018-11-25T01:48:04.603Z,5.05
2018-11-25T01:49:04.156Z,5.12
2018-11-25T01:50:04.572Z,5.15
2018-11-25T01:51:04.558Z,5.12
2018-11-25T01:52:04.543Z,5.1
2018-11-25T01:53:04.294Z,5.07
2018-11-25T01:54:04.527Z,5.08
2018-11-25T01:55:04.264Z,5.08
2018-11-25T01:56:04.521Z,5
2018-11-25T01:57:04.502Z,4.97
2018-11-25T01:58:04.483Z,5.1
2018-11-25T01:59:05.236Z,5.08
2018-11-25T02:00:04.469Z,5.04
2018-11-25T02:01:04.470Z,5.08
2018-11-25T02:02:04.505Z,5.11
2018-11-25T02:03:04.455Z,5.14
2018-11-25T02:04:04.202Z,5.04
2018-11-25T02:05:04.434Z,5.11
2018-11-25T02:06:04.421Z,5.05
2018-11-25T02:07:04.412Z,5
2018-11-25T02:08:04.397Z,4.96
2018-11-25T02:09:04.390Z,5.1
2018-11-25T02:10:04.384Z,5.02
2018-11-25T02:11:04.365Z,5.04
2018-11-25T02:12:04.350Z,5.05
2018-11-25T02:13:04.339Z,5.02
2018-11-25T02:14:04.328Z,5.02
2018-11-25T02:15:04.328Z,5.04
2018-11-25T02:16:04.313Z,4.94
2018-11-25T02:17:04.292Z,4.97
2018-11-25T02:18:04.051Z,4.96
2018-11-25T02:19:04.282Z,4.99
2018-11-25T02:20:04.270Z,4.89
2018-11-25T02:21:04.017Z,4.92
2018-11-25T02:22:04.012Z,4.99
2018-11-25T02:23:04.241Z,4.92
2018-11-25T02:24:04.269Z,4.96
2018-11-25T02:25:03.981Z,4.89
2018-11-25T02:26:04.229Z,4.86
2018-11-25T02:27:04.219Z,4.93
2018-11-25T02:28:04.209Z,4.86
2018-11-25T02:29:04.199Z,4.9
2018-11-25T02:30:04.192Z,4.9
2018-11-25T02:31:04.162Z,4.86
2018-11-25T02:32:04.150Z,4.84
2018-11-25T02:33:04.180Z,4.86
2018-11-25T02:34:04.155Z,4.87
2018-11-25T02:35:03.886Z,4.86
2018-11-25T02:36:04.120Z,4.82
2018-11-25T02:37:04.111Z,4.82
2018-11-25T02:38:04.253Z,4.87
2018-11-25T02:39:04.112Z,4.78
2018-11-25T02:40:04.094Z,4.82
2018-11-25T02:41:04.131Z,4.87
2018-11-25T02:42:04.064Z,4.8
2018-11-25T02:43:04.050Z,4.78
2018-11-25T02:44:04.051Z,4.84
2018-11-25T02:45:04.040Z,4.77
2018-11-25T02:46:03.790Z,4.87
2018-11-25T02:47:04.014Z,4.87
2018-11-25T02:48:03.776Z,4.87
2018-11-25T02:49:03.742Z,4.78
2018-11-25T02:50:04.004Z,4.77
2018-11-25T02:51:03.969Z,4.77
2018-11-25T02:52:03.964Z,4.75
2018-11-25T02:53:03.969Z,4.75
2018-11-25T02:54:03.978Z,4.86
2018-11-25T02:55:03.701Z,4.8
2018-11-25T02:56:03.921Z,4.84
2018-11-25T02:57:03.659Z,4.89
2018-11-25T02:58:03.916Z,4.84
2018-11-25T02:59:03.907Z,4.87
2018-11-25T03:00:03.964Z,4.86
2018-11-25T03:01:03.873Z,4.87
2018-11-25T03:02:03.610Z,4.7
2018-11-25T03:03:03.871Z,4.8
2018-11-25T03:04:03.839Z,4.73
2018-11-25T03:05:03.843Z,4.77
2018-11-25T03:06:03.824Z,4.73
2018-11-25T03:07:03.820Z,4.67
2018-11-25T03:08:03.571Z,4.71
2018-11-25T03:09:03.798Z,4.75
2018-11-25T03:10:03.780Z,4.68
2018-11-25T03:11:03.796Z,4.6
2018-11-25T03:12:03.831Z,4.5
2018-11-25T03:13:03.769Z,4.62
2018-11-25T03:14:03.758Z,4.55
2018-11-25T03:15:03.740Z,4.44
2018-11-25T03:16:03.483Z,4.44
2018-11-25T03:17:03.722Z,4.41
2018-11-25T03:18:03.461Z,4.32
2018-11-25T03:19:03.695Z,4.3
2018-11-25T03:20:03.691Z,4.17
2018-11-25T03:21:03.699Z,4.13
2018-11-25T03:22:03.680Z,4.08
2018-11-25T03:23:03.675Z,4.12
2018-11-25T03:24:03.401Z,4.08
2018-11-25T03:25:03.697Z,4.04
2018-11-25T03:26:03.691Z,4.05
2018-11-25T03:27:03.617Z,4.04
2018-11-25T03:28:03.681Z,4.02
2018-11-25T03:29:03.609Z,3.98
2018-11-25T03:30:03.599Z,3.87
2018-11-25T03:31:03.575Z,3.86
2018-11-25T03:32:03.349Z,3.86
2018-11-25T03:33:03.315Z,3.95
2018-11-25T03:34:03.316Z,3.88
2018-11-25T03:35:03.593Z,3.76
2018-11-25T03:36:03.277Z,3.76
2018-11-25T03:37:03.522Z,3.8
2018-11-25T03:38:03.522Z,3.63
2018-11-25T03:39:03.508Z,3.66
2018-11-25T03:40:03.490Z,3.6
2018-11-25T03:41:03.546Z,3.58
2018-11-25T03:42:03.538Z,3.47
2018-11-25T03:43:03.208Z,3.58
2018-11-25T03:44:03.445Z,3.62
2018-11-25T03:45:03.438Z,3.62
2018-11-25T03:46:03.422Z,3.62
2018-11-25T03:47:03.435Z,3.6
2018-11-25T03:48:03.400Z,3.62
2018-11-25T03:49:03.386Z,3.55
2018-11-25T03:50:03.373Z,3.48
2018-11-25T03:51:03.366Z,3.48
2018-11-25T03:52:03.365Z,3.47
2018-11-25T03:53:03.342Z,3.45
2018-11-25T03:54:03.114Z,3.48
2018-11-25T03:55:03.320Z,3.47
2018-11-25T03:56:03.325Z,3.47
2018-11-25T03:57:03.079Z,3.45
2018-11-25T03:58:03.115Z,3.6
2018-11-25T03:59:03.279Z,3.65
2018-11-25T04:00:03.039Z,3.74
2018-11-25T04:01:03.256Z,3.65
2018-11-25T04:02:03.254Z,3.7
2018-11-25T04:03:03.233Z,3.7
2018-11-25T04:04:03.290Z,3.69
2018-11-25T04:05:03.229Z,3.63
2018-11-25T04:06:03.202Z,3.6
2018-11-25T04:07:03.199Z,3.6
2018-11-25T04:08:03.199Z,3.63
2018-11-25T04:09:03.203Z,3.65
2018-11-25T04:10:03.163Z,3.66
2018-11-25T04:11:02.911Z,3.58
2018-11-25T04:12:03.146Z,3.56
2018-11-25T04:13:03.159Z,3.6
2018-11-25T04:14:03.118Z,3.56
2018-11-25T04:15:03.126Z,3.48
2018-11-25T04:16:03.114Z,3.58
2018-11-25T04:17:03.090Z,3.47
2018-11-25T04:18:02.859Z,3.41
2018-11-25T04:19:03.098Z,3.51
2018-11-25T04:20:03.056Z,3.4
2018-11-25T04:21:02.789Z,3.37
2018-11-25T04:22:03.054Z,3.31
2018-11-25T04:23:03.047Z,3.34
2018-11-25T04:24:02.787Z,3.32
2018-11-25T04:25:02.553Z,3.31
2018-11-25T04:26:02.992Z,3.36
2018-11-25T04:27:02.991Z,3.42
2018-11-25T04:28:02.984Z,3.48
2018-11-25T04:29:02.982Z,3.53
2018-11-25T04:30:02.949Z,3.6
2018-11-25T04:31:02.936Z,3.51
2018-11-25T04:32:02.935Z,3.42
2018-11-25T04:33:02.921Z,3.36
2018-11-25T04:34:02.689Z,3.36
2018-11-25T04:35:02.885Z,3.5
2018-11-25T04:36:02.942Z,3.42
2018-11-25T04:37:02.889Z,3.44
2018-11-25T04:38:02.892Z,3.4
2018-11-25T04:39:02.682Z,3.42
2018-11-25T04:40:02.603Z,3.32
2018-11-25T04:41:02.345Z,3.25
2018-11-25T04:42:02.873Z,3.29
2018-11-25T04:43:02.567Z,3.21
2018-11-25T04:44:02.812Z,3.11
2018-11-25T04:45:02.783Z,3.08
2018-11-25T04:46:02.541Z,3.22
2018-11-25T04:47:02.781Z,3.19
2018-11-25T04:48:02.769Z,3.05
2018-11-25T04:49:02.772Z,3.16
2018-11-25T04:50:02.760Z,3.11
2018-11-25T04:51:02.730Z,3.22
2018-11-25T04:52:02.716Z,3.11
2018-11-25T04:53:02.705Z,3.18
2018-11-25T04:54:02.685Z,3.13
2018-11-25T04:55:02.454Z,3.1
2018-11-25T04:56:02.664Z,3.11
2018-11-25T04:57:02.650Z,3.11
2018-11-25T04:58:02.649Z,3.16
2018-11-25T04:59:02.439Z,3.16
2018-11-25T05:00:02.626Z,3.16
2018-11-25T05:01:02.625Z,3.11
2018-11-25T05:02:02.628Z,3.14
2018-11-25T05:03:02.625Z,3.11
2018-11-25T05:04:02.353Z,3.18
2018-11-25T05:05:02.574Z,3.08
2018-11-25T05:06:02.589Z,3.16
2018-11-25T05:07:02.562Z,3.16
2018-11-25T05:08:02.554Z,3.13
2018-11-25T05:09:02.539Z,3.05
2018-11-25T05:10:02.521Z,3
2018-11-25T05:11:02.028Z,3.07
2018-11-25T05:12:02.519Z,3.01
2018-11-25T05:13:02.241Z,2.97
2018-11-25T05:14:02.252Z,2.93
2018-11-25T05:15:02.228Z,2.98
2018-11-25T05:16:02.466Z,2.95
2018-11-25T05:17:02.200Z,2.9
2018-11-25T05:18:02.457Z,2.9
2018-11-25T05:19:02.448Z,2.9
2018-11-25T05:20:02.453Z,2.97
2018-11-25T05:21:02.405Z,2.85
2018-11-25T05:22:02.423Z,2.92
2018-11-25T05:23:02.410Z,2.9
2018-11-25T05:24:02.398Z,2.86
2018-11-25T05:25:02.375Z,2.92
2018-11-25T05:26:02.103Z,2.86
2018-11-25T05:27:02.350Z,2.89
2018-11-25T05:28:02.332Z,2.89
2018-11-25T05:29:02.323Z,2.87
2018-11-25T05:30:02.310Z,2.83
2018-11-25T05:31:02.323Z,2.87
2018-11-25T05:32:02.301Z,2.93
2018-11-25T05:33:02.286Z,2.93
2018-11-25T05:34:02.282Z,2.92
2018-11-25T05:35:02.249Z,2.86
2018-11-25T05:36:02.260Z,2.85
2018-11-25T05:37:01.981Z,2.8
2018-11-25T05:38:02.230Z,2.8
2018-11-25T05:39:02.221Z,2.82
2018-11-25T05:40:02.200Z,2.75
2018-11-25T05:41:01.952Z,2.65
2018-11-25T05:42:02.217Z,2.67
2018-11-25T05:43:01.921Z,2.68
2018-11-25T05:44:02.156Z,2.65
2018-11-25T05:45:02.150Z,2.6
2018-11-25T05:46:01.895Z,2.6
2018-11-25T05:47:01.889Z,2.54
2018-11-25T05:48:02.128Z,2.6
2018-11-25T05:49:02.124Z,2.62
2018-11-25T05:50:01.885Z,2.71
2018-11-25T05:51:02.099Z,2.79
2018-11-25T05:52:02.075Z,2.75
2018-11-25T05:53:02.061Z,2.74
2018-11-25T05:54:02.049Z,2.68
2018-11-25T05:55:01.790Z,2.69
2018-11-25T05:56:02.026Z,2.71
2018-11-25T05:57:02.028Z,2.71
2018-11-25T05:58:02.007Z,2.77
2018-11-25T05:59:01.994Z,2.82
2018-11-25T06:00:01.994Z,2.79
2018-11-25T06:01:01.996Z,2.86
2018-11-25T06:02:01.981Z,2.8
2018-11-25T06:03:01.457Z,2.75
2018-11-25T06:04:01.699Z,2.86
2018-11-25T06:05:01.691Z,2.82
2018-11-25T06:06:01.920Z,2.79
2018-11-25T06:07:01.676Z,2.8
2018-11-25T06:08:01.906Z,2.86
2018-11-25T06:09:01.893Z,2.82
2018-11-25T06:10:01.876Z,2.86
2018-11-25T06:11:01.877Z,2.83
2018-11-25T06:12:01.875Z,2.8
2018-11-25T06:13:01.594Z,2.69
2018-11-25T06:14:01.839Z,2.79
2018-11-25T06:15:01.825Z,2.79
2018-11-25T06:16:01.819Z,2.74
2018-11-25T06:17:01.561Z,2.65
2018-11-25T06:18:01.535Z,2.75
2018-11-25T06:19:01.771Z,2.69
2018-11-25T06:20:01.521Z,2.71
2018-11-25T06:21:03.348Z,2.77
2018-11-25T06:22:01.497Z,2.75
2018-11-25T06:23:01.487Z,2.62
2018-11-25T06:24:01.711Z,2.69
2018-11-25T06:25:01.475Z,2.69
2018-11-25T06:26:01.719Z,2.79
2018-11-25T06:27:01.691Z,2.8
2018-11-25T06:28:01.686Z,2.68
2018-11-25T06:29:01.676Z,2.82
2018-11-25T06:30:01.665Z,2.79
2018-11-25T06:31:01.644Z,2.71
2018-11-25T06:32:01.642Z,2.67
2018-11-25T06:33:01.647Z,2.75
2018-11-25T06:34:01.650Z,2.69
2018-11-25T06:35:01.604Z,2.77
2018-11-25T06:36:01.603Z,2.77
2018-11-25T06:37:01.593Z,2.82
2018-11-25T06:38:01.588Z,2.8
2018-11-25T06:39:01.309Z,2.82
2018-11-25T06:40:01.063Z,2.8
2018-11-25T06:41:01.544Z,2.68
2018-11-25T06:42:01.533Z,2.77
2018-11-25T06:43:01.274Z,2.72
2018-11-25T06:44:01.533Z,2.74
2018-11-25T06:45:01.301Z,2.74
2018-11-25T06:46:01.486Z,2.79
2018-11-25T06:47:01.476Z,2.71
2018-11-25T06:48:01.469Z,2.69
2018-11-25T06:49:01.222Z,2.69
2018-11-25T06:50:01.445Z,2.75
2018-11-25T06:51:01.177Z,2.74
2018-11-25T06:52:01.441Z,2.72
2018-11-25T06:53:01.412Z,2.69
2018-11-25T06:54:01.398Z,2.79
2018-11-25T06:55:01.390Z,2.75
2018-11-25T06:56:01.375Z,2.79
2018-11-25T06:57:01.686Z,2.69
2018-11-25T06:58:01.368Z,2.79
2018-11-25T06:59:01.355Z,2.68
2018-11-25T07:00:01.097Z,2.77
2018-11-25T07:01:01.079Z,2.75
2018-11-25T07:02:01.318Z,2.71
2018-11-25T07:03:01.301Z,2.77
2018-11-25T07:04:01.293Z,2.75
2018-11-25T07:05:01.285Z,2.75
2018-11-25T07:06:01.284Z,2.69
2018-11-25T07:07:01.274Z,2.82
2018-11-25T07:08:01.023Z,2.69
2018-11-25T07:09:01.229Z,2.71
2018-11-25T07:10:01.238Z,2.8
2018-11-25T07:11:01.214Z,2.8
2018-11-25T07:12:01.199Z,3
2018-11-25T07:13:00.948Z,2.97
2018-11-25T07:14:01.189Z,3.1
2018-11-25T07:15:00.923Z,3.04
2018-11-25T07:16:01.162Z,3.05
2018-11-25T07:17:01.165Z,2.97
2018-11-25T07:18:01.149Z,2.97
2018-11-25T07:19:01.138Z,2.93
2018-11-25T07:20:01.122Z,2.86
2018-11-25T07:21:00.862Z,2.95
2018-11-25T07:22:01.114Z,2.85
2018-11-25T07:23:01.089Z,2.92
2018-11-25T07:24:01.069Z,2.83
2018-11-25T07:25:00.826Z,2.72
2018-11-25T07:26:00.806Z,2.69
2018-11-25T07:27:01.048Z,2.6
2018-11-25T07:28:17.550Z,2.64
2018-11-25T07:29:01.041Z,2.62
2018-11-25T07:30:00.975Z,2.71
2018-11-25T07:31:01.012Z,2.61
2018-11-25T07:32:00.758Z,2.62
2018-11-25T07:33:00.984Z,2.43
2018-11-25T07:34:00.975Z,2.51
2018-11-25T07:35:00.970Z,2.51
2018-11-25T07:36:00.947Z,2.56
2018-11-25T07:37:00.943Z,2.6
2018-11-25T07:38:00.712Z,2.6
2018-11-25T07:39:00.702Z,2.6
2018-11-25T07:40:00.903Z,2.67
2018-11-25T07:41:00.889Z,2.67
2018-11-25T07:42:00.875Z,2.8
2018-11-25T07:43:00.881Z,2.75
2018-11-25T07:44:00.873Z,2.85
2018-11-25T07:45:00.846Z,2.92
2018-11-25T07:46:00.839Z,2.87
2018-11-25T07:47:00.583Z,2.92
2018-11-25T07:48:00.577Z,2.93
2018-11-25T07:49:00.806Z,2.85
2018-11-25T07:50:00.786Z,3
2018-11-25T07:51:01.152Z,3.1
2018-11-25T07:52:01.641Z,3.07
2018-11-25T07:53:00.763Z,3.03
2018-11-25T07:54:00.527Z,3.14
2018-11-25T07:55:00.744Z,3.08
2018-11-25T07:56:00.731Z,3
2018-11-25T07:57:01.044Z,3
2018-11-25T07:58:00.483Z,3
2018-11-25T07:59:00.701Z,3.04
2018-11-25T08:00:00.715Z,3.05
2018-11-25T08:01:00.428Z,3.11
2018-11-25T08:02:00.432Z,3.11
2018-11-25T08:03:00.407Z,3.16
2018-11-25T08:04:00.654Z,3.14
2018-11-25T08:05:00.652Z,3.08
2018-11-25T08:06:00.632Z,3.14
2018-11-25T08:07:01.423Z,3.14
2018-11-25T08:08:00.357Z,3.18
2018-11-25T08:09:00.590Z,3.16
2018-11-25T08:10:00.584Z,3.14
2018-11-25T08:11:00.577Z,3.07
2018-11-25T08:12:00.557Z,3.14
2018-11-25T08:13:01.411Z,3.16
2018-11-25T08:14:00.298Z,3.04
2018-11-25T08:15:00.538Z,3.07
2018-11-25T08:16:00.591Z,2.95
2018-11-25T08:17:00.515Z,3.05
2018-11-25T08:18:00.509Z,2.98
2018-11-25T08:19:00.490Z,3
2018-11-25T08:20:00.246Z,3.05
2018-11-25T08:21:00.469Z,3.08
2018-11-25T08:22:01.269Z,3.16
2018-11-25T08:23:00.230Z,3.16
2018-11-25T08:24:00.219Z,3.13
2018-11-25T08:25:00.189Z,3.14
2018-11-25T08:26:00.471Z,3.11
2018-11-25T08:27:00.412Z,3.05
2018-11-25T08:28:00.429Z,3.11
2018-11-25T08:29:00.436Z,3.11
2018-11-25T08:30:00.396Z,3.05
2018-11-25T08:31:00.128Z,3.1
2018-11-25T08:32:00.363Z,3.28
2018-11-25T08:33:00.356Z,3.26
2018-11-25T08:34:00.343Z,3.29
2018-11-25T08:35:00.363Z,3.26
2018-11-25T08:36:00.324Z,3.25
2018-11-25T08:37:00.312Z,3.11
2018-11-25T08:38:00.320Z,3.14
2018-11-25T08:39:00.294Z,3.21
2018-11-25T08:40:00.282Z,3.26
2018-11-25T08:41:00.286Z,3.25
2018-11-25T08:42:00.276Z,3.25
2018-11-25T08:43:00.026Z,3.32
2018-11-25T08:44:00.267Z,3.47
2018-11-25T08:45:00.241Z,3.53
2018-11-25T08:46:00.227Z,3.56
2018-11-25T08:47:00.221Z,3.62
2018-11-25T08:47:59.962Z,3.6
2018-11-25T08:49:00.227Z,3.59
2018-11-25T08:49:59.929Z,3.7
2018-11-25T08:51:00.479Z,3.7
2018-11-25T08:51:59.911Z,3.84
2018-11-25T08:52:59.906Z,3.84
2018-11-25T08:54:00.146Z,3.86
2018-11-25T08:55:00.140Z,3.92
2018-11-25T08:56:00.121Z,3.96
2018-11-25T08:57:00.125Z,3.91
2018-11-25T08:57:59.850Z,3.81
2018-11-25T08:59:00.097Z,4.04
2018-11-25T09:00:00.122Z,4.05
2018-11-25T09:01:00.094Z,4.05
2018-11-25T09:02:00.074Z,4.16
2018-11-25T09:02:59.811Z,4.19
2018-11-25T09:04:00.069Z,4.23
2018-11-25T09:04:59.782Z,4.16
2018-11-25T09:06:00.029Z,4.24
2018-11-25T09:06:59.766Z,4.31
2018-11-25T09:08:00.011Z,4.3
2018-11-25T09:08:59.990Z,4.31
2018-11-25T09:09:59.982Z,4.32
2018-11-25T09:10:59.989Z,4.38
2018-11-25T09:11:59.959Z,4.38
2018-11-25T09:13:01.176Z,4.4
2018-11-25T09:13:59.953Z,4.41
2018-11-25T09:14:59.950Z,4.49
2018-11-25T09:15:59.939Z,4.48
2018-11-25T09:16:59.933Z,4.49
2018-11-25T09:17:59.994Z,4.5
2018-11-25T09:18:59.656Z,4.58
2018-11-25T09:19:59.917Z,4.5
2018-11-25T09:20:59.895Z,4.58
2018-11-25T09:21:59.958Z,4.59
2018-11-25T09:22:59.887Z,4.6
2018-11-25T09:23:59.887Z,4.62
2018-11-25T09:24:59.647Z,4.74
2018-11-25T09:25:59.850Z,4.77
2018-11-25T09:26:59.844Z,4.82
2018-11-25T09:27:59.911Z,4.93
2018-11-25T09:28:59.829Z,4.89
2018-11-25T09:29:59.574Z,4.94
2018-11-25T09:30:59.573Z,5.04
2018-11-25T09:31:59.845Z,5.07
2018-11-25T09:32:59.832Z,5.17
2018-11-25T09:33:59.796Z,5.14
2018-11-25T09:34:59.777Z,5.29
2018-11-25T09:35:59.283Z,5.36
2018-11-25T09:36:59.752Z,5.48
2018-11-25T09:37:59.773Z,5.54
2018-11-25T09:38:59.500Z,5.69
2018-11-25T09:39:59.768Z,5.84
2018-11-25T09:41:04.014Z,5.89
2018-11-25T09:41:59.726Z,5.9
2018-11-25T09:42:59.740Z,6.01
2018-11-25T09:43:59.720Z,6.12
2018-11-25T09:44:59.446Z,6.16
2018-11-25T09:45:59.472Z,6.24
2018-11-25T09:46:59.429Z,6.24
2018-11-25T09:47:59.670Z,6.33
2018-11-25T09:48:59.657Z,6.42
2018-11-25T09:49:59.417Z,6.36
2018-11-25T09:50:59.652Z,6.48
2018-11-25T09:51:59.630Z,6.52
2018-11-25T09:53:00.449Z,6.51
2018-11-25T09:53:59.378Z,6.57
2018-11-25T09:54:59.381Z,6.54
2018-11-25T09:55:59.364Z,6.57
2018-11-25T09:56:59.357Z,6.46
2018-11-25T09:57:59.608Z,6.45
2018-11-25T09:58:59.635Z,6.45
2018-11-25T09:59:59.591Z,6.52
2018-11-25T10:00:59.762Z,6.48
2018-11-25T10:01:59.582Z,6.45
2018-11-25T10:02:59.582Z,6.57
2018-11-25T10:03:59.566Z,6.49
2018-11-25T10:04:59.581Z,6.56
2018-11-25T10:05:59.296Z,6.56
2018-11-25T10:06:59.585Z,6.59
2018-11-25T10:07:59.283Z,6.74
2018-11-25T10:08:59.527Z,6.67
2018-11-25T10:09:59.291Z,6.75
2018-11-25T10:10:59.258Z,6.75
2018-11-25T10:11:59.491Z,6.78
2018-11-25T10:12:59.548Z,6.82
2018-11-25T10:13:59.529Z,6.69
2018-11-25T10:14:59.231Z,6.72
2018-11-25T10:15:59.275Z,6.75
2018-11-25T10:16:59.480Z,6.74
2018-11-25T10:18:04.705Z,6.87
2018-11-25T10:18:59.475Z,6.78
2018-11-25T10:19:59.449Z,6.87
2018-11-25T10:20:59.436Z,6.96
2018-11-25T10:21:59.190Z,6.87
2018-11-25T10:22:59.421Z,6.88
2018-11-25T10:23:59.419Z,6.95
2018-11-25T10:24:59.401Z,6.92
2018-11-25T10:25:59.399Z,6.88
2018-11-25T10:26:59.149Z,6.95
2018-11-25T10:27:59.391Z,6.88
2018-11-25T10:28:59.384Z,6.93
2018-11-25T10:29:59.382Z,6.97
2018-11-25T10:30:59.129Z,6.89
2018-11-25T10:31:59.367Z,6.89
2018-11-25T10:32:59.356Z,6.88
2018-11-25T10:33:59.356Z,6.87
2018-11-25T10:34:59.336Z,6.99
2018-11-25T10:35:59.335Z,7.05
2018-11-25T10:36:59.347Z,7.06
2018-11-25T10:37:59.325Z,7.02
2018-11-25T10:38:59.340Z,7.15
2018-11-25T10:39:59.306Z,7.06
2018-11-25T10:40:59.307Z,7.11
2018-11-25T10:41:59.309Z,7.15
2018-11-25T10:42:59.274Z,7.18
2018-11-25T10:43:59.278Z,7.2
2018-11-25T10:44:59.276Z,7.25
2018-11-25T10:45:59.269Z,7.23
2018-11-25T10:46:59.268Z,7.28
2018-11-25T10:47:59.301Z,7.32
2018-11-25T10:48:59.268Z,7.29
2018-11-25T10:49:59.251Z,7.32
2018-11-25T10:50:58.985Z,7.35
2018-11-25T10:51:59.229Z,7.33
2018-11-25T10:52:58.979Z,7.29
2018-11-25T10:53:59.215Z,7.33
2018-11-25T10:54:58.982Z,7.35
2018-11-25T10:55:59.209Z,7.4
2018-11-25T10:56:58.938Z,7.4
2018-11-25T10:57:58.940Z,7.48
2018-11-25T10:58:59.193Z,7.47
2018-11-25T10:59:58.932Z,7.54
2018-11-25T11:00:59.211Z,7.58
2018-11-25T11:01:58.921Z,7.7
2018-11-25T11:02:58.912Z,7.73
2018-11-25T11:03:58.970Z,7.87
2018-11-25T11:04:59.143Z,7.91
2018-11-25T11:05:58.920Z,7.97
2018-11-25T11:06:59.152Z,7.98
2018-11-25T11:07:59.139Z,8.13
2018-11-25T11:08:58.879Z,8.18
2018-11-25T11:09:59.108Z,8.12
2018-11-25T11:10:58.863Z,8.18
2018-11-25T11:11:59.110Z,8.23
2018-11-25T11:12:59.093Z,8.27
2018-11-25T11:13:58.854Z,8.31
2018-11-25T11:14:59.080Z,8.48
2018-11-25T11:15:59.069Z,8.41
2018-11-25T11:16:59.083Z,8.55
2018-11-25T11:17:59.065Z,8.48
2018-11-25T11:18:59.068Z,8.63
2018-11-25T11:19:59.049Z,8.74
2018-11-25T11:20:58.817Z,8.69
2018-11-25T11:21:59.067Z,8.81
2018-11-25T11:22:58.793Z,8.71
2018-11-25T11:23:59.022Z,8.81
2018-11-25T11:24:59.034Z,8.87
2018-11-25T11:26:02.424Z,8.92
2018-11-25T11:26:59.029Z,9.04
2018-11-25T11:27:59.008Z,9
2018-11-25T11:28:58.771Z,9.08
2018-11-25T11:29:59.007Z,9.11
2018-11-25T11:30:58.997Z,9.1
2018-11-25T11:31:58.997Z,9.06
2018-11-25T11:32:58.985Z,9.19
2018-11-25T11:33:58.978Z,9.11
2018-11-25T11:34:58.734Z,9.18
2018-11-25T11:35:58.971Z,9.28
2018-11-25T11:36:58.807Z,9.29
2018-11-25T11:37:59.009Z,9.4
2018-11-25T11:38:58.960Z,9.44
2018-11-25T11:39:58.957Z,9.4
2018-11-25T11:40:58.965Z,9.43
2018-11-25T11:41:58.688Z,9.43
2018-11-25T11:42:58.428Z,9.54
2018-11-25T11:43:58.908Z,9.54
2018-11-25T11:44:58.926Z,9.58
2018-11-25T11:45:58.918Z,9.62
2018-11-25T11:46:58.908Z,9.66
2018-11-25T11:47:58.916Z,9.61
2018-11-25T11:48:58.939Z,9.69
2018-11-25T11:49:58.930Z,9.82
2018-11-25T11:50:58.900Z,9.8
2018-11-25T11:51:58.882Z,9.87
2018-11-25T11:52:58.892Z,9.83
2018-11-25T11:53:59.486Z,9.92
2018-11-25T11:54:58.953Z,9.87
2018-11-25T11:55:58.872Z,9.95
2018-11-25T11:56:58.859Z,9.87
2018-11-25T11:57:58.872Z,9.86
2018-11-25T11:58:58.615Z,9.92
2018-11-25T11:59:58.838Z,10.04
2018-11-25T12:00:58.849Z,9.98
2018-11-25T12:01:58.843Z,10.04
2018-11-25T12:02:58.362Z,10.02
2018-11-25T12:03:58.839Z,9.97
2018-11-25T12:04:58.818Z,9.95
2018-11-25T12:05:58.842Z,9.99
2018-11-25T12:06:58.814Z,10.15
2018-11-25T12:07:58.831Z,10.04
2018-11-25T12:08:58.576Z,10.1
2018-11-25T12:09:58.567Z,10.16
2018-11-25T12:10:58.804Z,10.19
2018-11-25T12:11:58.791Z,10.13
2018-11-25T12:12:58.790Z,10.17
2018-11-25T12:13:58.811Z,10.31
2018-11-25T12:14:58.771Z,10.22
2018-11-25T12:15:58.781Z,10.35
2018-11-25T12:16:58.787Z,10.4
2018-11-25T12:17:58.553Z,10.35
2018-11-25T12:18:58.772Z,10.4
2018-11-25T12:19:58.517Z,10.37
2018-11-25T12:20:58.509Z,10.46
2018-11-25T12:22:03.190Z,10.41
2018-11-25T12:22:58.751Z,10.51
2018-11-25T12:23:59.559Z,10.48
2018-11-25T12:24:58.491Z,10.56
2018-11-25T12:25:58.721Z,10.56
2018-11-25T12:26:58.725Z,10.63
2018-11-25T12:27:58.484Z,10.6
2018-11-25T12:28:58.720Z,10.59
2018-11-25T12:29:58.460Z,10.63
2018-11-25T12:30:58.710Z,10.61
2018-11-25T12:31:58.725Z,10.71
2018-11-25T12:32:58.722Z,10.72
2018-11-25T12:33:58.452Z,10.72
2018-11-25T12:34:58.688Z,10.72
2018-11-25T12:35:58.442Z,10.78
2018-11-25T12:36:58.677Z,10.74
2018-11-25T12:37:58.677Z,10.87
2018-11-25T12:38:58.673Z,10.82
2018-11-25T12:39:58.663Z,10.84
2018-11-25T12:40:58.667Z,10.79
2018-11-25T12:41:58.696Z,10.75
2018-11-25T12:42:58.425Z,10.74
2018-11-25T12:43:58.408Z,10.72
2018-11-25T12:44:58.654Z,10.86
2018-11-25T12:45:58.414Z,10.93
2018-11-25T12:46:58.647Z,10.9
2018-11-25T12:47:58.642Z,10.9
2018-11-25T12:48:58.387Z,10.93
2018-11-25T12:49:58.378Z,10.96
2018-11-25T12:50:58.619Z,11
2018-11-25T12:51:58.388Z,11.04
2018-11-25T12:52:59.583Z,11.14
2018-11-25T12:53:59.415Z,11.07
2018-11-25T12:54:58.609Z,11.27
2018-11-25T12:55:58.357Z,11.37
2018-11-25T12:56:58.356Z,11.36
2018-11-25T12:57:58.590Z,11.37
2018-11-25T12:58:58.593Z,11.43
2018-11-25T12:59:58.130Z,11.44
2018-11-25T13:00:58.591Z,11.5
2018-11-25T13:01:58.595Z,11.52
2018-11-25T13:02:58.586Z,11.62
2018-11-25T13:03:58.565Z,11.65
2018-11-25T13:04:58.578Z,11.55
2018-11-25T13:05:58.583Z,11.54
2018-11-25T13:06:58.576Z,11.57
2018-11-25T13:07:58.559Z,11.65
2018-11-25T13:08:58.567Z,11.66
2018-11-25T13:09:58.540Z,11.72
2018-11-25T13:10:58.538Z,11.73
2018-11-25T13:11:58.553Z,11.73
2018-11-25T13:12:58.533Z,11.73
2018-11-25T13:13:58.546Z,11.78
2018-11-25T13:14:58.545Z,11.75
2018-11-25T13:15:58.561Z,11.86
2018-11-25T13:16:58.510Z,11.68
2018-11-25T13:17:58.308Z,11.73
2018-11-25T13:18:58.528Z,11.73